Time,TemperatureF,DewpointF,PressureIn,WindDirection,WindDirectionDegrees,WindSpeedMPH,WindSpeedGustMPH,Humidity,HourlyPrecipIn,Conditions,Clouds,dailyrainin,SoftwareType,DateUTC
2013-02-06 00:05:00,14.8,8.6,30.07,NW,308,0.0,0.0,76,0.00,,,0.00,Wunderground v.1.13,2013-02-06 06:05:00,
2013-02-06 00:15:00,14.3,8.4,30.07,NW,308,0.0,0.0,77,0.00,,,0.00,Wunderground v.1.13,2013-02-06 06:15:00,
2013-02-06 00:20:00,14.1,8.5,30.07,NW,308,0.0,0.0,78,0.00,,,0.00,Wunderground v.1.13,2013-02-06 06:20:00,
2013-02-06 00:30:00,13.8,8.5,30.07,NW,308,0.0,0.0,79,0.00,,,0.00,Wunderground v.1.13,2013-02-06 06:30:00,
2013-02-06 00:40:00,13.1,7.8,30.07,NW,308,0.0,0.0,79,0.00,,,0.00,Wunderground v.1.13,2013-02-06 06:40:00,
2013-02-06 00:50:00,12.1,7.1,30.08,NW,308,0.0,0.0,80,0.00,,,0.00,Wunderground v.1.13,2013-02-06 06:50:00,
2013-02-06 00:55:00,11.9,6.9,30.08,NW,308,0.0,0.0,80,0.00,,,0.00,Wunderground v.1.13,2013-02-06 06:55:00,
2013-02-06 01:05:00,11.7,7.0,30.09,NW,308,0.0,0.0,81,0.00,,,0.00,Wunderground v.1.13,2013-02-06 07:05:00,
2013-02-06 01:15:00,11.1,6.7,30.09,NW,308,0.0,0.0,82,0.00,,,0.00,Wunderground v.1.13,2013-02-06 07:15:00,
2013-02-06 01:25:00,10.7,6.3,30.09,NW,308,0.0,0.0,82,0.00,,,0.00,Wunderground v.1.13,2013-02-06 07:25:00,
2013-02-06 01:30:00,10.5,6.1,30.09,NW,308,0.0,0.0,82,0.00,,,0.00,Wunderground v.1.13,2013-02-06 07:30:00,
2013-02-06 01:35:00,10.2,5.8,30.09,NW,308,0.0,0.0,82,0.00,,,0.00,Wunderground v.1.13,2013-02-06 07:35:00,
2013-02-06 01:45:00,9.9,5.8,30.09,NW,308,0.0,0.0,83,0.00,,,0.00,Wunderground v.1.13,2013-02-06 07:45:00,
2013-02-06 01:50:00,9.3,5.2,30.09,NW,308,0.0,0.0,83,0.00,,,0.00,Wunderground v.1.13,2013-02-06 07:50:00,
2013-02-06 02:00:00,8.6,4.2,30.09,NW,308,0.0,0.0,82,0.00,,,0.00,Wunderground v.1.13,2013-02-06 08:00:00,
2013-02-06 02:05:00,8.1,4.0,30.10,NW,308,0.0,0.0,83,0.00,,,0.00,Wunderground v.1.13,2013-02-06 08:05:00,
2013-02-06 02:15:00,7.7,3.6,30.10,NW,308,0.0,0.0,83,0.00,,,0.00,Wunderground v.1.13,2013-02-06 08:15:00,
2013-02-06 02:25:00,7.2,3.1,30.10,NW,308,0.0,0.0,83,0.00,,,0.00,Wunderground v.1.13,2013-02-06 08:25:00,
2013-02-06 02:35:00,7.2,3.4,30.11,NW,308,0.0,0.0,84,0.00,,,0.00,Wunderground v.1.13,2013-02-06 08:35:00,
2013-02-06 02:45:00,7.2,3.4,30.11,NW,308,0.0,0.0,84,0.00,,,0.00,Wunderground v.1.13,2013-02-06 08:45:00,
2013-02-06 02:50:00,7.0,3.2,30.10,NW,308,0.0,0.0,84,0.00,,,0.00,Wunderground v.1.13,2013-02-06 08:50:00,
2013-02-06 03:00:00,6.5,2.7,30.10,NW,308,0.0,0.0,84,0.00,,,0.00,Wunderground v.1.13,2013-02-06 09:00:00,
2013-02-06 03:05:00,6.1,2.3,30.11,NW,308,0.0,0.0,84,0.00,,,0.00,Wunderground v.1.13,2013-02-06 09:05:00,
2013-02-06 03:15:00,6.1,2.3,30.11,NW,308,0.0,0.0,84,0.00,,,0.00,Wunderground v.1.13,2013-02-06 09:15:00,
2013-02-06 03:25:00,5.8,2.0,30.11,NW,308,0.0,0.0,84,0.00,,,0.00,Wunderground v.1.13,2013-02-06 09:25:00,
2013-02-06 03:35:00,5.6,1.8,30.12,NW,308,0.0,0.0,84,0.00,,,0.00,Wunderground v.1.13,2013-02-06 09:35:00,
2013-02-06 03:45:00,5.6,1.8,30.12,NW,308,0.0,0.0,84,0.00,,,0.00,Wunderground v.1.13,2013-02-06 09:45:00,
2013-02-06 03:55:00,5.2,1.4,30.13,NW,308,0.0,0.0,84,0.00,,,0.00,Wunderground v.1.13,2013-02-06 09:55:00,
2013-02-06 04:00:00,5.2,1.2,30.13,NW,308,0.0,0.0,83,0.00,,,0.00,Wunderground v.1.13,2013-02-06 10:00:00,
2013-02-06 04:05:00,4.8,0.8,30.13,NW,308,0.0,0.0,83,0.00,,,0.00,Wunderground v.1.13,2013-02-06 10:05:00,
2013-02-06 04:15:00,4.3,0.3,30.13,NW,308,0.0,0.0,83,0.00,,,0.00,Wunderground v.1.13,2013-02-06 10:15:00,
2013-02-06 04:25:00,3.9,-0.1,30.13,NW,308,0.0,0.0,83,0.00,,,0.00,Wunderground v.1.13,2013-02-06 10:25:00,
2013-02-06 04:30:00,3.9,-0.1,30.13,NW,308,0.0,0.0,83,0.00,,,0.00,Wunderground v.1.13,2013-02-06 10:30:00,
2013-02-06 04:40:00,3.7,-0.3,30.13,NW,308,0.0,0.0,83,0.00,,,0.00,Wunderground v.1.13,2013-02-06 10:40:00,
2013-02-06 04:45:00,3.7,-0.3,30.13,NW,308,0.0,0.0,83,0.00,,,0.00,Wunderground v.1.13,2013-02-06 10:45:00,
2013-02-06 04:55:00,3.5,-0.5,30.12,NW,308,0.0,0.0,83,0.00,,,0.00,Wunderground v.1.13,2013-02-06 10:55:00,
2013-02-06 05:00:00,3.4,-0.6,30.12,NW,308,0.0,0.0,83,0.00,,,0.00,Wunderground v.1.13,2013-02-06 11:00:00,
2013-02-06 05:05:00,3.0,-1.0,30.11,NW,308,0.0,0.0,83,0.00,,,0.00,Wunderground v.1.13,2013-02-06 11:05:00,
2013-02-06 05:15:00,2.6,-1.6,30.11,NW,308,0.0,0.0,82,0.00,,,0.00,Wunderground v.1.13,2013-02-06 11:15:00,
2013-02-06 05:25:00,2.4,-1.6,30.13,NW,308,0.0,0.0,83,0.00,,,0.00,Wunderground v.1.13,2013-02-06 11:25:00,
2013-02-06 05:35:00,2.6,-1.4,30.13,NW,308,0.0,0.0,83,0.00,,,0.00,Wunderground v.1.13,2013-02-06 11:35:00,
2013-02-06 05:40:00,2.6,-1.4,30.13,NW,308,0.0,0.0,83,0.00,,,0.00,Wunderground v.1.13,2013-02-06 11:40:00,
2013-02-06 05:50:00,2.6,-1.4,30.14,NW,308,0.0,0.0,83,0.00,,,0.00,Wunderground v.1.13,2013-02-06 11:50:00,
2013-02-06 05:55:00,2.8,-1.2,30.14,NW,308,0.0,0.0,83,0.00,,,0.00,Wunderground v.1.13,2013-02-06 11:55:00,
2013-02-06 06:00:00,2.6,-1.6,30.14,NW,308,0.0,0.0,82,0.00,,,0.00,Wunderground v.1.13,2013-02-06 12:00:00,
2013-02-06 06:05:00,2.4,-1.8,30.13,NW,308,0.0,0.0,82,0.00,,,0.00,Wunderground v.1.13,2013-02-06 12:05:00,
2013-02-06 06:15:00,1.8,-2.4,30.13,NW,308,0.0,0.0,82,0.00,,,0.00,Wunderground v.1.13,2013-02-06 12:15:00,
2013-02-06 06:20:00,1.8,-2.4,30.13,NW,308,0.0,0.0,82,0.00,,,0.00,Wunderground v.1.13,2013-02-06 12:20:00,
2013-02-06 06:30:00,2.0,-2.2,30.13,NW,308,0.0,0.0,82,0.00,,,0.00,Wunderground v.1.13,2013-02-06 12:30:00,
2013-02-06 06:35:00,1.8,-2.4,30.14,NW,308,0.0,0.0,82,0.00,,,0.00,Wunderground v.1.13,2013-02-06 12:35:00,
2013-02-06 06:45:00,1.8,-2.4,30.14,NW,308,0.0,0.0,82,0.00,,,0.00,Wunderground v.1.13,2013-02-06 12:45:00,
2013-02-06 06:55:00,1.8,-2.4,30.13,NW,308,0.0,0.0,82,0.00,,,0.00,Wunderground v.1.13,2013-02-06 12:55:00,
2013-02-06 07:05:00,1.5,-2.7,30.14,NW,308,0.0,0.0,82,0.00,,,0.00,Wunderground v.1.13,2013-02-06 13:05:00,
2013-02-06 07:15:00,1.3,-2.9,30.14,NW,308,0.0,0.0,82,0.00,,,0.00,Wunderground v.1.13,2013-02-06 13:15:00,
2013-02-06 07:25:00,1.5,-2.7,30.15,NW,308,0.0,0.0,82,0.00,,,0.00,Wunderground v.1.13,2013-02-06 13:25:00,
2013-02-06 07:35:00,1.7,-2.3,30.17,NW,308,0.0,0.0,83,0.00,,,0.00,Wunderground v.1.13,2013-02-06 13:35:00,
2013-02-06 07:45:00,2.2,-1.8,30.17,NW,308,0.0,0.0,83,0.00,,,0.00,Wunderground v.1.13,2013-02-06 13:45:00,
2013-02-06 07:55:00,2.6,-1.4,30.17,NW,308,0.0,0.0,83,0.00,,,0.00,Wunderground v.1.13,2013-02-06 13:55:00,
2013-02-06 08:05:00,3.2,-0.8,30.18,NW,308,0.0,0.0,83,0.00,,,0.00,Wunderground v.1.13,2013-02-06 14:05:00,
2013-02-06 08:15:00,5.0,1.2,30.18,NW,308,0.0,0.0,84,0.00,,,0.00,Wunderground v.1.13,2013-02-06 14:15:00,
2013-02-06 08:25:00,6.7,3.1,30.18,NW,308,0.0,0.0,85,0.00,,,0.00,Wunderground v.1.13,2013-02-06 14:25:00,
2013-02-06 08:30:00,7.2,3.6,30.18,NW,308,0.0,0.0,85,0.00,,,0.00,Wunderground v.1.13,2013-02-06 14:30:00,
2013-02-06 08:35:00,7.9,4.3,30.18,NW,308,0.0,0.0,85,0.00,,,0.00,Wunderground v.1.13,2013-02-06 14:35:00,
2013-02-06 08:45:00,9.2,5.9,30.18,NW,308,0.0,0.0,86,0.00,,,0.00,Wunderground v.1.13,2013-02-06 14:45:00,
2013-02-06 08:50:00,9.9,6.6,30.18,NW,308,0.0,0.0,86,0.00,,,0.00,Wunderground v.1.13,2013-02-06 14:50:00,
2013-02-06 08:55:00,10.7,7.3,30.18,NW,308,0.0,0.0,86,0.00,,,0.00,Wunderground v.1.13,2013-02-06 14:55:00,
2013-02-06 09:00:00,11.1,7.7,30.18,NW,309,0.0,0.0,86,0.00,,,0.00,Wunderground v.1.13,2013-02-06 15:00:00,
2013-02-06 09:05:00,11.2,7.8,30.17,NW,309,0.0,0.0,86,0.00,,,0.00,Wunderground v.1.13,2013-02-06 15:05:00,
2013-02-06 09:15:00,12.1,9.0,30.17,NW,309,0.0,0.0,87,0.00,,,0.00,Wunderground v.1.13,2013-02-06 15:15:00,
2013-02-06 09:20:00,12.8,9.7,30.18,NW,309,0.0,0.0,87,0.00,,,0.00,Wunderground v.1.13,2013-02-06 15:20:00,
2013-02-06 09:30:00,14.1,10.9,30.18,NW,309,0.0,0.0,87,0.00,,,0.00,Wunderground v.1.13,2013-02-06 15:30:00,
2013-02-06 09:35:00,14.9,11.7,30.17,NW,309,0.0,0.0,87,0.00,,,0.00,Wunderground v.1.13,2013-02-06 15:35:00,
2013-02-06 09:45:00,16.7,13.5,30.17,NW,309,0.0,0.0,87,0.00,,,0.00,Wunderground v.1.13,2013-02-06 15:45:00,
2013-02-06 09:50:00,17.0,13.8,30.18,NW,309,0.0,0.0,87,0.00,,,0.00,Wunderground v.1.13,2013-02-06 15:50:00,
2013-02-06 10:00:00,18.3,14.5,30.18,NW,309,0.0,0.0,85,0.00,,,0.00,Wunderground v.1.13,2013-02-06 16:00:00,
2013-02-06 10:05:00,18.9,14.3,30.19,SSW,211,0.0,5.0,82,0.00,,,0.00,Wunderground v.1.13,2013-02-06 16:05:00,
2013-02-06 10:15:00,19.5,13.2,30.19,SSW,198,1.0,1.0,76,0.00,,,0.00,Wunderground v.1.13,2013-02-06 16:15:00,
2013-02-06 10:25:00,19.7,12.4,30.18,South,169,1.0,5.0,73,0.00,,,0.00,Wunderground v.1.13,2013-02-06 16:25:00,
2013-02-06 10:30:00,20.0,12.4,30.18,SSE,165,1.0,5.0,72,0.00,,,0.00,Wunderground v.1.13,2013-02-06 16:30:00,
2013-02-06 10:40:00,20.2,12.3,30.18,SSE,163,1.0,1.0,71,0.00,,,0.00,Wunderground v.1.13,2013-02-06 16:40:00,
2013-02-06 10:45:00,20.6,12.7,30.18,SSE,163,0.0,5.0,71,0.00,,,0.00,Wunderground v.1.13,2013-02-06 16:45:00,
2013-02-06 10:50:00,21.4,13.1,30.17,SSE,163,0.0,5.0,70,0.00,,,0.00,Wunderground v.1.13,2013-02-06 16:50:00,
2013-02-06 11:00:00,22.9,13.2,30.17,SSE,163,1.0,1.0,66,0.00,,,0.00,Wunderground v.1.13,2013-02-06 17:00:00,
2013-02-06 11:05:00,23.3,13.3,30.17,SSE,159,1.0,1.0,65,0.00,,,0.00,Wunderground v.1.13,2013-02-06 17:05:00,
2013-02-06 11:15:00,23.6,13.5,30.17,SSE,152,1.0,1.0,65,0.00,,,0.00,Wunderground v.1.13,2013-02-06 17:15:00,
2013-02-06 11:20:00,24.1,13.7,30.17,SSE,152,0.0,6.0,64,0.00,,,0.00,Wunderground v.1.13,2013-02-06 17:20:00,
2013-02-06 11:30:00,24.2,13.4,30.17,SSE,152,2.0,2.0,63,0.00,,,0.00,Wunderground v.1.13,2013-02-06 17:30:00,
2013-02-06 11:40:00,24.8,14.3,30.16,SSE,156,1.0,6.0,64,0.00,,,0.00,Wunderground v.1.13,2013-02-06 17:40:00,
2013-02-06 11:50:00,25.7,14.1,30.16,SSE,156,1.0,6.0,61,0.00,,,0.00,Wunderground v.1.13,2013-02-06 17:50:00,
2013-02-06 12:00:00,26.3,14.7,30.16,SSE,155,2.0,2.0,61,0.00,,,0.00,Wunderground v.1.13,2013-02-06 18:00:00,
2013-02-06 12:05:00,26.6,14.9,30.15,SSE,150,1.0,9.0,61,0.00,,,0.00,Wunderground v.1.13,2013-02-06 18:05:00,
2013-02-06 12:15:00,26.7,15.0,30.15,SSE,160,3.0,9.0,61,0.10,,,0.02,Wunderground v.1.13,2013-02-06 18:15:00,
2013-02-06 12:25:00,26.9,15.6,30.15,SSE,153,2.0,9.0,62,0.05,,,0.03,Wunderground v.1.13,2013-02-06 18:25:00,
2013-02-06 12:30:00,27.0,15.7,30.15,SSE,152,2.0,9.0,62,0.05,,,0.03,Wunderground v.1.13,2013-02-06 18:30:00,
2013-02-06 12:40:00,27.2,16.3,30.14,South,173,3.0,9.0,63,0.04,,,0.03,Wunderground v.1.13,2013-02-06 18:40:00,
2013-02-06 12:50:00,28.1,16.7,30.15,SSE,154,2.0,9.0,62,0.04,,,0.04,Wunderground v.1.13,2013-02-06 18:50:00,
2013-02-06 13:00:00,28.8,17.4,30.15,SSE,159,3.0,9.0,62,0.04,,,0.05,Wunderground v.1.13,2013-02-06 19:00:00,
2013-02-06 13:05:00,28.8,17.8,30.15,SSE,155,3.0,3.0,63,0.04,,,0.05,Wunderground v.1.13,2013-02-06 19:05:00,
2013-02-06 13:15:00,28.2,17.2,30.15,South,189,2.0,9.0,63,0.04,,,0.06,Wunderground v.1.13,2013-02-06 19:15:00,
2013-02-06 13:20:00,28.1,16.7,30.15,South,191,3.0,9.0,62,0.04,,,0.06,Wunderground v.1.13,2013-02-06 19:20:00,
2013-02-06 13:25:00,27.8,16.8,30.15,SSW,192,3.0,9.0,63,0.04,,,0.06,Wunderground v.1.13,2013-02-06 19:25:00,
2013-02-06 13:35:00,27.6,17.0,30.14,South,189,2.0,9.0,64,0.00,,,0.06,Wunderground v.1.13,2013-02-06 19:35:00,
2013-02-06 13:40:00,27.5,16.9,30.14,South,188,2.0,2.0,64,0.00,,,0.07,Wunderground v.1.13,2013-02-06 19:40:00,
2013-02-06 13:50:00,27.9,17.6,30.14,SSW,196,1.0,9.0,65,0.00,,,0.07,Wunderground v.1.13,2013-02-06 19:50:00,
2013-02-06 13:55:00,28.2,17.6,30.14,South,186,1.0,1.0,64,0.00,,,0.07,Wunderground v.1.13,2013-02-06 19:55:00,
2013-02-06 14:00:00,28.2,17.6,30.14,South,186,1.0,9.0,64,0.00,,,0.07,Wunderground v.1.13,2013-02-06 20:00:00,
2013-02-06 14:05:00,28.4,17.8,30.14,South,186,1.0,1.0,64,0.00,,,0.07,Wunderground v.1.13,2013-02-06 20:05:00,
2013-02-06 14:15:00,28.7,18.4,30.14,South,186,0.0,8.0,65,0.00,,,0.07,Wunderground v.1.13,2013-02-06 20:15:00,
2013-02-06 14:20:00,28.8,18.5,30.13,South,186,0.0,8.0,65,0.00,,,0.07,Wunderground v.1.13,2013-02-06 20:20:00,
2013-02-06 14:25:00,29.0,18.7,30.13,South,186,0.0,8.0,65,0.00,,,0.07,Wunderground v.1.13,2013-02-06 20:25:00,
2013-02-06 14:30:00,29.1,18.8,30.13,South,186,0.0,8.0,65,0.00,,,0.08,Wunderground v.1.13,2013-02-06 20:30:00,
2013-02-06 14:40:00,29.5,19.2,30.13,South,186,0.0,8.0,65,0.00,,,0.08,Wunderground v.1.13,2013-02-06 20:40:00,
2013-02-06 14:45:00,29.7,19.4,30.13,South,186,0.0,8.0,65,0.00,,,0.08,Wunderground v.1.13,2013-02-06 20:45:00,
2013-02-06 14:50:00,29.8,19.5,30.13,South,186,0.0,8.0,65,0.00,,,0.08,Wunderground v.1.13,2013-02-06 20:50:00,
2013-02-06 15:00:00,29.4,19.1,30.13,South,186,0.0,8.0,65,0.00,,,0.08,Wunderground v.1.13,2013-02-06 21:00:00,
2013-02-06 15:05:00,29.4,19.1,30.13,South,186,0.0,4.0,65,0.00,,,0.09,Wunderground v.1.13,2013-02-06 21:05:00,
2013-02-06 15:15:00,29.7,19.7,30.13,South,171,0.0,4.0,66,0.00,,,0.09,Wunderground v.1.13,2013-02-06 21:15:00,
2013-02-06 15:25:00,29.4,19.8,30.13,South,171,0.0,4.0,67,0.00,,,0.09,Wunderground v.1.13,2013-02-06 21:25:00,
2013-02-06 15:30:00,29.5,19.9,30.13,SSE,167,1.0,1.0,67,0.00,,,0.09,Wunderground v.1.13,2013-02-06 21:30:00,
2013-02-06 15:40:00,29.5,19.9,30.12,SSE,165,1.0,1.0,67,0.00,,,0.09,Wunderground v.1.13,2013-02-06 21:40:00,
2013-02-06 15:45:00,29.5,20.2,30.12,SSE,165,1.0,1.0,68,0.00,,,0.09,Wunderground v.1.13,2013-02-06 21:45:00,
2013-02-06 15:55:00,29.5,20.2,30.12,SSE,164,0.0,4.0,68,0.00,,,0.09,Wunderground v.1.13,2013-02-06 21:55:00,
2013-02-06 16:00:00,29.5,20.2,30.12,SSE,157,1.0,1.0,68,0.00,,,0.09,Wunderground v.1.13,2013-02-06 22:00:00,
2013-02-06 16:05:00,29.4,20.1,30.12,SSE,156,1.0,1.0,68,0.00,,,0.09,Wunderground v.1.13,2013-02-06 22:05:00,
2013-02-06 16:15:00,29.3,20.4,30.12,SSE,156,0.0,9.0,69,0.00,,,0.09,Wunderground v.1.13,2013-02-06 22:15:00,
2013-02-06 16:20:00,29.1,20.2,30.11,SE,135,0.0,9.0,69,0.00,,,0.09,Wunderground v.1.13,2013-02-06 22:20:00,
2013-02-06 16:25:00,29.0,20.1,30.11,SE,146,1.0,1.0,69,0.00,,,0.09,Wunderground v.1.13,2013-02-06 22:25:00,
2013-02-06 16:35:00,28.8,20.2,30.11,SE,146,0.0,9.0,70,0.00,,,0.09,Wunderground v.1.13,2013-02-06 22:35:00,
2013-02-06 16:40:00,28.8,20.2,30.11,SE,142,0.0,9.0,70,0.00,,,0.09,Wunderground v.1.13,2013-02-06 22:40:00,
2013-02-06 16:50:00,28.8,20.2,30.11,SE,143,0.0,9.0,70,0.00,,,0.09,Wunderground v.1.13,2013-02-06 22:50:00,
2013-02-06 17:00:00,28.7,20.1,30.11,SE,144,0.0,9.0,70,0.00,,,0.09,Wunderground v.1.13,2013-02-06 23:00:00,
2013-02-06 17:05:00,28.5,20.3,30.10,SE,144,0.0,6.0,71,0.00,,,0.09,Wunderground v.1.13,2013-02-06 23:05:00,
2013-02-06 17:15:00,28.2,20.3,30.10,SE,145,0.0,6.0,72,0.00,,,0.09,Wunderground v.1.13,2013-02-06 23:15:00,
2013-02-06 17:25:00,28.2,20.7,30.10,SE,145,0.0,6.0,73,0.00,,,0.09,Wunderground v.1.13,2013-02-06 23:25:00,
2013-02-06 17:35:00,27.9,20.4,30.09,SE,145,0.0,6.0,73,0.00,,,0.09,Wunderground v.1.13,2013-02-06 23:35:00,
2013-02-06 17:45:00,27.8,20.6,30.09,SE,146,0.0,6.0,74,0.00,,,0.09,Wunderground v.1.13,2013-02-06 23:45:00,
2013-02-06 17:50:00,27.9,20.7,30.08,SSE,148,0.0,6.0,74,0.00,,,0.09,Wunderground v.1.13,2013-02-06 23:50:00,
2013-02-06 17:55:00,28.1,20.9,30.08,SSE,149,0.0,6.0,74,0.00,,,0.09,Wunderground v.1.13,2013-02-06 23:55:00,
2013-02-06 18:05:00,27.9,21.0,30.07,SSE,161,0.0,8.0,75,0.00,,,0.09,Wunderground v.1.13,2013-02-07 00:05:00,
2013-02-06 18:15:00,27.9,21.0,30.07,SSE,163,1.0,1.0,75,0.00,,,0.09,Wunderground v.1.13,2013-02-07 00:15:00,
2013-02-06 18:25:00,28.1,21.2,30.07,SE,146,1.0,1.0,75,0.00,,,0.09,Wunderground v.1.13,2013-02-07 00:25:00,
2013-02-06 18:30:00,28.1,21.5,30.07,SE,133,1.0,1.0,76,0.00,,,0.09,Wunderground v.1.13,2013-02-07 00:30:00,
2013-02-06 18:40:00,28.1,21.5,30.07,SE,133,0.0,8.0,76,0.00,,,0.09,Wunderground v.1.13,2013-02-07 00:40:00,
2013-02-06 18:45:00,28.1,21.5,30.07,SE,133,0.0,8.0,76,0.00,,,0.09,Wunderground v.1.13,2013-02-07 00:45:00,
2013-02-06 18:55:00,28.2,21.6,30.09,SE,133,0.0,8.0,76,0.00,,,0.09,Wunderground v.1.13,2013-02-07 00:55:00,
2013-02-06 19:05:00,28.4,22.1,30.10,SE,133,0.0,0.0,77,0.00,,,0.09,Wunderground v.1.13,2013-02-07 01:05:00,
2013-02-06 19:15:00,28.4,22.1,30.10,SE,133,0.0,0.0,77,0.00,,,0.09,Wunderground v.1.13,2013-02-07 01:15:00,
2013-02-06 19:25:00,28.4,22.4,30.10,SE,133,0.0,0.0,78,0.00,,,0.09,Wunderground v.1.13,2013-02-07 01:25:00,
2013-02-06 19:30:00,28.4,22.4,30.10,SE,133,0.0,0.0,78,0.00,,,0.09,Wunderground v.1.13,2013-02-07 01:30:00,
2013-02-06 19:35:00,28.4,22.4,30.10,SE,133,0.0,0.0,78,0.00,,,0.09,Wunderground v.1.13,2013-02-07 01:35:00,
2013-02-06 19:45:00,28.5,22.5,30.10,SE,133,0.0,0.0,78,0.00,,,0.09,Wunderground v.1.13,2013-02-07 01:45:00,
2013-02-06 19:50:00,28.5,22.5,30.09,SE,133,0.0,0.0,78,0.00,,,0.09,Wunderground v.1.13,2013-02-07 01:50:00,
2013-02-06 20:00:00,28.7,23.0,30.09,SE,133,0.0,0.0,79,0.00,,,0.09,Wunderground v.1.13,2013-02-07 02:00:00,
2013-02-06 20:05:00,28.7,23.0,30.09,SE,133,0.0,1.0,79,0.00,,,0.09,Wunderground v.1.13,2013-02-07 02:05:00,
2013-02-06 20:15:00,28.8,23.1,30.09,SE,133,0.0,1.0,79,0.00,,,0.09,Wunderground v.1.13,2013-02-07 02:15:00,
2013-02-06 20:25:00,29.0,23.0,30.07,SE,130,0.0,1.0,78,0.00,,,0.09,Wunderground v.1.13,2013-02-07 02:25:00,
2013-02-06 20:35:00,29.1,22.8,30.05,ESE,108,1.0,7.0,77,0.00,,,0.09,Wunderground v.1.13,2013-02-07 02:35:00,
2013-02-06 20:45:00,29.3,22.7,30.05,SE,132,0.0,1.0,76,0.00,,,0.09,Wunderground v.1.13,2013-02-07 02:45:00,
2013-02-06 20:50:00,29.3,22.7,30.04,ESE,109,0.0,1.0,76,0.00,,,0.09,Wunderground v.1.13,2013-02-07 02:50:00,
2013-02-06 20:55:00,29.4,22.8,30.04,ESE,113,0.0,1.0,76,0.00,,,0.09,Wunderground v.1.13,2013-02-07 02:55:00,
2013-02-06 21:00:00,29.4,22.8,30.04,ESE,112,0.0,1.0,76,0.00,,,0.09,Wunderground v.1.13,2013-02-07 03:00:00,
2013-02-06 21:05:00,29.4,22.8,30.05,ESE,120,1.0,1.0,76,0.00,,,0.09,Wunderground v.1.13,2013-02-07 03:05:00,
2013-02-06 21:15:00,29.7,23.1,30.05,ESE,117,1.0,1.0,76,0.00,,,0.09,Wunderground v.1.13,2013-02-07 03:15:00,
2013-02-06 21:25:00,30.0,23.4,30.03,East,96,1.0,1.0,76,0.00,,,0.09,Wunderground v.1.13,2013-02-07 03:25:00,
2013-02-06 21:35:00,30.0,23.7,30.02,SE,126,0.0,8.0,77,0.00,,,0.09,Wunderground v.1.13,2013-02-07 03:35:00,
2013-02-06 21:45:00,30.3,23.6,30.02,SE,133,1.0,1.0,76,0.00,,,0.09,Wunderground v.1.13,2013-02-07 03:45:00,
2013-02-06 21:55:00,30.4,23.7,30.02,SE,134,0.0,8.0,76,0.00,,,0.09,Wunderground v.1.13,2013-02-07 03:55:00,
2013-02-06 22:00:00,30.4,24.1,30.02,SSE,150,1.0,1.0,77,0.00,,,0.09,Wunderground v.1.13,2013-02-07 04:00:00,
2013-02-06 22:05:00,30.6,24.2,30.02,SE,142,1.0,1.0,77,0.00,,,0.09,Wunderground v.1.13,2013-02-07 04:05:00,
2013-02-06 22:15:00,30.6,24.6,30.02,SE,138,0.0,9.0,78,0.00,,,0.09,Wunderground v.1.13,2013-02-07 04:15:00,
2013-02-06 22:20:00,30.6,24.6,30.02,SE,138,0.0,9.0,78,0.00,,,0.09,Wunderground v.1.13,2013-02-07 04:20:00,
2013-02-06 22:30:00,30.7,24.7,30.02,SE,139,0.0,9.0,78,0.00,,,0.09,Wunderground v.1.13,2013-02-07 04:30:00,
2013-02-06 22:35:00,30.9,24.8,30.03,SE,139,0.0,9.0,78,0.00,,,0.09,Wunderground v.1.13,2013-02-07 04:35:00,
2013-02-06 22:45:00,30.9,25.2,30.03,SE,139,0.0,9.0,79,0.00,,,0.09,Wunderground v.1.13,2013-02-07 04:45:00,
2013-02-06 22:55:00,31.0,25.2,30.05,SE,139,0.0,9.0,79,0.00,,,0.09,Wunderground v.1.13,2013-02-07 04:55:00,
2013-02-06 23:00:00,31.0,25.2,30.05,SE,139,0.0,9.0,79,0.00,,,0.09,Wunderground v.1.13,2013-02-07 05:00:00,
2013-02-06 23:05:00,31.2,25.7,30.04,SE,139,0.0,0.0,80,0.00,,,0.09,Wunderground v.1.13,2013-02-07 05:05:00,
2013-02-06 23:10:00,31.0,25.6,30.04,SE,139,0.0,0.0,80,0.00,,,0.09,Wunderground v.1.13,2013-02-07 05:10:00,
2013-02-06 23:15:00,31.0,25.6,30.04,SE,139,0.0,0.0,80,0.00,,,0.09,Wunderground v.1.13,2013-02-07 05:15:00,
2013-02-06 23:25:00,31.0,25.9,30.03,SE,139,0.0,0.0,81,0.00,,,0.09,Wunderground v.1.13,2013-02-07 05:25:00,
2013-02-06 23:35:00,31.2,26.3,30.02,SE,139,0.0,0.0,82,0.00,,,0.09,Wunderground v.1.13,2013-02-07 05:35:00,
2013-02-06 23:45:00,31.3,26.4,30.02,SE,139,0.0,0.0,82,0.00,,,0.09,Wunderground v.1.13,2013-02-07 05:45:00,
2013-02-06 23:55:00,31.6,26.7,30.02,SE,139,0.0,0.0,82,0.00,,,0.09,Wunderground v.1.13,2013-02-07 05:55:00,